Time;durP1;ratioP1;P1;durP2;ratioP2;P2;SDS_P1;SDS_P2;PMS_P1;PMS_P2;Temp;Humidity;BMP_temperature;BMP_pressure;BME280_temperature;BME280_humidity;BME280_pressure;Samples;Min_cycle;Max_cycle;Signal;HPM_P1;HPM_P2
2022/04/12 00:00:13;;;;;;;75.40;27.80;;;;;;;-0.50;54.76;99344.25;101937;1320;23134;-88
2022/04/12 00:11:03;;;;;;;;;;;;;;;;;;;;;
2022/04/12 00:15:07;;;;;;;61.60;22.10;;;;;;;-0.50;55.24;99339.69;104850;1291;22572;-86
2022/04/12 00:21:50;;;;;;;;;;;;;;;;;;;;;
2022/04/12 00:29:24;;;;;;;;;;;;;;;;;;;;;
2022/04/12 00:33:05;;;;;;;54.60;21.40;;;;;;;-0.57;55.31;99343.52;104524;1297;22569;-82
2022/04/12 00:35:55;;;;;;;53.60;19.80;;;;;;;-0.59;55.54;99340.61;104034;1297;22618;-86
2022/04/12 00:43:37;;;;;;;50.70;20.60;;;;;;;-0.68;55.67;99336.77;103724;1303;26077;-85
2022/04/12 00:46:38;;;;;;;;;;;;;;;;;;;;;
2022/04/12 00:53:38;;;;;;;45.70;19.00;;;;;;;-0.93;55.97;99338.20;102573;1315;25462;-86
2022/04/12 01:01:22;;;;;;;;;;;;;;;;;;;;;
2022/04/12 01:08:13;;;;;;;51.90;20.70;;;;;;;-1.08;56.39;99353.02;102117;1321;25633;-88
2022/04/12 01:12:18;;;;;;;46.80;17.40;;;;;;;-1.09;56.43;99350.59;102221;1318;22644;-86
2022/04/12 01:15:51;;;;;;;44.00;17.70;;;;;;;-1.12;56.37;99352.06;101695;1321;24301;-87
2022/04/12 01:19:37;;;;;;;43.70;17.60;;;;;;;-1.15;56.36;99348.07;101715;1316;23480;-87
2022/04/12 01:22:54;;;;;;;;;;;;;;;;;;;;;
2022/04/12 01:26:44;;;;;;;44.40;17.50;;;;;;;-1.17;56.37;99354.60;102431;1314;22588;-87
2022/04/12 01:29:58;;;;;;;;;;;;;;;;;;;;;
2022/04/12 01:37:14;;;;;;;34.30;13.00;;;;;;;-1.34;56.91;99353.70;102050;1321;22610;-86
2022/04/12 01:40:52;;;;;;;;;;;;;;;;;;;;;
2022/04/12 01:45:04;;;;;;;29.70;10.60;;;;;;;-1.03;56.95;99354.84;103074;1312;22585;-85
2022/04/12 01:48:40;;;;;;;30.80;10.60;;;;;;;-0.53;57.04;99354.98;102803;1312;24275;-86
2022/04/12 01:51:36;;;;;;;;;;;;;;;;;;;;;
2022/04/12 01:59:02;;;;;;;;;;;;;;;;;;;;;
2022/04/12 02:03:15;;;;;;;26.30;9.50;;;;;;;0.27;56.27;99341.69;102867;1311;24252;-85
2022/04/12 02:06:34;;;;;;;28.20;10.60;;;;;;;0.20;56.06;99341.33;103062;1311;22590;-86
2022/04/12 02:10:07;;;;;;;26.00;10.10;;;;;;;0.11;56.21;99342.25;103149;1303;22693;-86
2022/04/12 02:17:07;;;;;;;24.80;8.50;;;;;;;0.14;56.55;99336.24;104632;1290;25542;-85
2022/04/12 02:20:22;;;;;;;;;;;;;;;;;;;;;
2022/04/12 02:27:23;;;;;;;26.70;9.90;;;;;;;0.14;56.02;99329.77;104147;1297;22610;-85
2022/04/12 02:30:44;;;;;;;29.00;9.80;;;;;;;-0.09;56.28;99327.35;104550;1290;22758;-84
2022/04/12 02:36:57;;;;;;;30.80;12.00;;;;;;;-0.40;56.19;99331.42;104290;1297;24221;-84
2022/04/12 02:40:52;;;;;;;38.90;16.30;;;;;;;-0.61;56.32;99333.66;103960;1297;25247;-86
2022/04/12 02:47:29;;;;;;;39.90;16.60;;;;;;;-0.91;56.95;99335.87;103128;1307;22580;-85
2022/04/12 02:54:52;;;;;;;;;;;;;;;;;;;;;
2022/04/12 02:58:03;;;;;;;32.90;12.60;;;;;;;-0.71;57.40;99331.96;101395;1327;22599;-85
2022/04/12 03:17:44;;;;;;;35.70;12.50;;;;;;;-1.09;57.68;99347.09;101767;1322;22591;-86
2022/04/12 03:20:51;;;;;;;;;;;;;;;;;;;;;
2022/04/12 03:24:32;;;;;;;;;;;;;;;;;;;;;
2022/04/12 03:32:06;;;;;;;;;;;;;;;;;;;;;
2022/04/12 03:35:29;;;;;;;;;;;;;;;;;;;;;
2022/04/12 03:43:00;;;;;;;37.60;14.80;;;;;;;-1.45;58.05;99349.73;102565;1289;3139280;-87
2022/04/12 03:46:24;;;;;;;45.30;16.70;;;;;;;-1.43;58.27;99351.43;105008;1287;22548;-89
2022/04/12 03:50:09;;;;;;;45.00;17.10;;;;;;;-1.47;58.07;99353.61;105044;1287;22596;-87
2022/04/12 03:53:05;;;;;;;;;;;;;;;;;;;;;
2022/04/12 03:56:29;;;;;;;47.60;19.10;;;;;;;-1.63;58.10;99351.82;104941;1287;22763;-84
2022/04/12 03:59:46;;;;;;;;;;;;;;;;;;;;;
2022/04/12 04:04:00;;;;;;;47.90;19.60;;;;;;;-1.78;58.50;99349.30;104397;1289;22562;-85
2022/04/12 04:07:40;;;;;;;40.30;15.80;;;;;;;-1.80;58.72;99350.54;104007;1298;24695;-86
2022/04/12 04:10:25;;;;;;;53.10;23.10;;;;;;;-1.66;58.97;99354.82;104579;1292;25372;-87
2022/04/12 04:14:15;;;;;;;;;;;;;;;;;;;;;
2022/04/12 04:21:46;;;;;;;42.20;19.40;;;;;;;-1.45;58.60;99358.64;105587;1283;22617;-86
2022/04/12 04:28:48;;;;;;;;;;;;;;;;;;;;;
2022/04/12 04:36:22;;;;;;;;;;;;;;;;;;;;;
2022/04/12 04:43:49;;;;;;;;;;;;;;;;;;;;;
2022/04/12 04:51:20;;;;;;;29.20;12.70;;;;;;;-0.71;58.78;99368.85;103101;1309;22629;-88
2022/04/12 04:54:43;;;;;;;;;;;;;;;;;;;;;
2022/04/12 05:02:19;;;;;;;37.00;17.10;;;;;;;-0.10;58.90;99375.16;101801;1321;22642;-87
2022/04/12 05:04:56;;;;;;;35.50;14.80;;;;;;;0.22;58.55;99379.79;102232;1315;22617;-89
2022/04/12 05:08:34;;;;;;;;;;;;;;;;;;;;;
2022/04/12 05:12:00;;;;;;;37.80;15.00;;;;;;;1.19;58.54;99381.38;102859;1316;25677;-87
2022/04/12 05:16:03;;;;;;;39.50;16.30;;;;;;;1.70;58.39;99386.33;102457;1317;24330;-86
2022/04/12 05:26:12;;;;;;;37.10;15.20;;;;;;;2.83;57.81;99389.27;103053;1306;26636;-87
2022/04/12 05:29:53;;;;;;;41.60;16.20;;;;;;;3.21;57.83;99388.77;103856;1300;25482;-88
2022/04/12 05:33:12;;;;;;;42.70;17.90;;;;;;;3.75;57.76;99391.30;103507;1301;22571;-89
2022/04/12 05:35:57;;;;;;;46.70;18.40;;;;;;;4.21;57.89;99387.19;104919;1297;24306;-90
2022/04/12 05:39:27;;;;;;;44.10;19.00;;;;;;;4.76;57.72;99386.60;105306;1291;25254;-90
2022/04/12 05:42:25;;;;;;;41.90;18.50;;;;;;;5.35;57.85;99386.32;105172;1290;22796;-89
2022/04/12 05:45:01;;;;;;;46.10;19.50;;;;;;;5.67;57.72;99390.79;105129;1291;26512;-88
2022/04/12 05:48:12;;;;;;;46.50;20.30;;;;;;;5.95;57.42;99390.89;105429;1282;22571;-88
2022/04/12 05:50:43;;;;;;;49.60;19.40;;;;;;;6.32;57.57;99392.14;105983;1285;24248;-89
2022/04/12 05:53:22;;;;;;;43.50;18.70;;;;;;;6.68;58.00;99395.27;106568;1282;24277;-89
2022/04/12 05:55:53;;;;;;;54.40;19.00;;;;;;;7.06;57.31;99397.38;106373;1281;23162;-90
2022/04/12 05:58:30;;;;;;;41.10;16.20;;;;;;;7.34;57.43;99395.20;106707;1282;22576;-90
2022/04/12 06:01:27;;;;;;;40.40;17.50;;;;;;;7.62;57.18;99396.19;106272;1282;22563;-89
2022/04/12 06:03:54;;;;;;;41.90;17.30;;;;;;;7.92;57.18;99394.85;107337;1274;22579;-90
2022/04/12 06:06:56;;;;;;;42.10;16.30;;;;;;;8.20;57.04;99392.20;107674;1274;24216;-90
2022/04/12 06:09:56;;;;;;;;;;;;;;;;;;;;;
2022/04/12 06:13:12;;;;;;;27.00;10.30;;;;;;;8.80;56.68;99394.23;107615;1279;22657;-90
2022/04/12 06:15:46;;;;;;;26.30;11.00;;;;;;;9.23;56.71;99391.48;107446;1279;22560;-89
2022/04/12 06:18:23;;;;;;;27.30;11.30;;;;;;;9.45;56.32;99389.40;107500;1279;22715;-90
2022/04/12 06:24:30;;;;;;;47.20;19.30;;;;;;;9.58;55.87;99395.86;108939;1264;22558;-90
2022/04/12 06:26:58;;;;;;;70.50;26.50;;;;;;;9.72;55.63;99390.89;108192;1274;22586;-90
2022/04/12 06:29:54;;;;;;;;;;;;;;;;;;;;;
2022/04/12 06:33:03;;;;;;;50.20;17.50;;;;;;;10.06;55.53;99393.34;108256;1274;22589;-90
2022/04/12 06:35:53;;;;;;;34.00;14.60;;;;;;;10.38;55.86;99396.96;107542;1281;22582;-88
2022/04/12 06:38:20;;;;;;;30.10;12.80;;;;;;;10.57;55.52;99401.02;107243;1281;23920;-89
2022/04/12 06:41:19;;;;;;;;;;;;;;;;;;;;;
2022/04/12 06:44:07;;;;;;;18.00;7.30;;;;;;;10.85;55.18;99405.03;107034;1281;22715;-90
2022/04/12 06:46:37;;;;;;;15.20;5.70;;;;;;;10.90;54.79;99407.18;107798;1281;22739;-90
2022/04/12 06:49:24;;;;;;;17.90;8.10;;;;;;;10.93;54.99;99407.89;108002;1280;22963;-92
2022/04/12 06:52:12;;;;;;;19.30;6.20;;;;;;;11.24;55.35;99415.52;107889;1281;22997;-91
2022/04/12 06:54:47;;;;;;;15.10;6.40;;;;;;;11.58;55.22;99410.83;106957;1283;22724;-91
2022/04/12 06:57:20;;;;;;;25.30;9.10;;;;;;;11.73;55.02;99412.13;106996;1281;23343;-90
2022/04/12 07:00:09;;;;;;;23.30;9.60;;;;;;;11.98;55.29;99412.08;107674;1281;22822;-91
2022/04/12 07:02:51;;;;;;;17.20;7.80;;;;;;;12.29;55.38;99407.70;108022;1280;22648;-92
2022/04/12 07:05:39;;;;;;;15.60;6.40;;;;;;;12.58;55.15;99406.81;107422;1281;22544;-91
2022/04/12 07:08:12;;;;;;;15.40;6.10;;;;;;;12.69;54.38;99405.06;108655;1281;22632;-91
2022/04/12 07:13:58;;;;;;;17.00;5.90;;;;;;;12.95;54.67;99409.40;107872;1274;24756;-89
2022/04/12 07:16:29;;;;;;;16.20;5.70;;;;;;;13.16;54.59;99411.69;108865;1267;22478;-90
2022/04/12 07:18:56;;;;;;;16.30;6.50;;;;;;;13.29;54.29;99416.66;107191;1277;23132;-89
2022/04/12 07:21:49;;;;;;;18.00;7.40;;;;;;;13.27;54.15;99415.31;108226;1277;22752;-91
2022/04/12 07:24:42;;;;;;;16.80;6.90;;;;;;;13.29;54.15;99410.73;108553;1277;22565;-85
2022/04/12 07:27:23;;;;;;;13.40;5.10;;;;;;;13.46;54.14;99411.37;108765;1276;22833;-94
2022/04/12 07:30:51;;;;;;;13.30;5.30;;;;;;;13.46;53.73;99409.91;109782;1264;24028;31
2022/04/12 07:33:07;;;;;;;15.70;6.00;;;;;;;13.34;53.61;99413.77;108332;1277;22541;-92
2022/04/12 07:38:44;;;;;;;16.40;6.20;;;;;;;13.59;53.62;99411.20;108032;1276;22620;-91
2022/04/12 07:41:16;;;;;;;12.40;4.90;;;;;;;13.78;53.64;99410.92;108078;1276;24002;-93
2022/04/12 07:43:50;;;;;;;10.80;3.90;;;;;;;13.91;53.45;99413.51;107840;1278;22480;-91
2022/04/12 07:49:32;;;;;;;;;;;;;;;;;;;;;
2022/04/12 07:55:19;;;;;;;10.30;4.00;;;;;;;14.29;52.79;99413.10;108221;1266;22842;-91
2022/04/12 07:57:46;;;;;;;10.00;3.80;;;;;;;14.37;52.57;99412.24;109335;1267;23567;-92
2022/04/12 08:00:35;;;;;;;12.00;4.00;;;;;;;14.42;52.42;99417.76;108351;1268;22988;-90
2022/04/12 08:03:07;;;;;;;10.50;3.50;;;;;;;14.38;52.38;99416.49;108296;1268;23978;-90
2022/04/12 08:05:38;;;;;;;8.80;3.50;;;;;;;14.40;52.24;99418.65;107491;1277;22939;-90
2022/04/12 08:08:20;;;;;;;9.90;3.80;;;;;;;14.46;52.32;99421.40;107865;1268;22564;-88
2022/04/12 08:11:52;;;;;;;11.10;3.90;;;;;;;14.67;51.89;99421.42;105562;1312;545286;-88
2022/04/12 08:14:31;;;;;;;9.10;3.50;;;;;;;14.59;52.03;99420.82;106885;1286;22515;-92
2022/04/12 08:16:59;;;;;;;9.10;3.30;;;;;;;14.63;51.84;99419.80;106772;1287;22559;-92
2022/04/12 08:19:43;;;;;;;9.10;3.20;;;;;;;14.67;51.58;99421.08;105915;1287;22643;-90
2022/04/12 08:22:16;;;;;;;9.10;3.30;;;;;;;14.62;51.18;99421.49;105820;1287;23823;-88
2022/04/12 08:25:02;;;;;;;7.50;2.90;;;;;;;14.66;51.42;99420.29;103346;1284;3510116;-90
2022/04/12 08:27:39;;;;;;;10.00;3.80;;;;;;;14.73;51.26;99422.05;107456;1271;22497;-92
2022/04/12 08:30:07;;;;;;;10.10;3.30;;;;;;;14.75;50.95;99419.52;107367;1283;22503;-91
2022/04/12 08:35:52;;;;;;;;;;;;;;;;;;;;;
2022/04/12 08:38:21;;;;;;;9.00;3.80;;;;;;;15.14;50.98;99411.58;107196;1271;22555;-90
2022/04/12 08:40:51;;;;;;;9.90;4.10;;;;;;;15.23;50.79;99411.11;106734;1286;22646;-92
2022/04/12 08:43:25;;;;;;;11.00;3.90;;;;;;;15.29;49.98;99414.94;105398;1286;22496;-91
2022/04/12 08:46:27;;;;;;;;;;;;;;;;;;;;;
2022/04/12 08:49:41;;;;;;;9.70;4.40;;;;;;;15.37;50.22;99410.08;106147;1287;22573;-90
2022/04/12 08:52:13;;;;;;;8.20;3.40;;;;;;;15.49;50.56;99413.77;106174;1287;22757;-88
2022/04/12 08:55:15;;;;;;;;;;;;;;;;;;;;;
2022/04/12 08:57:54;;;;;;;9.40;3.80;;;;;;;15.54;49.96;99411.73;107406;1275;25274;-91
2022/04/12 09:00:27;;;;;;;9.30;4.10;;;;;;;15.64;50.17;99410.67;105812;1287;24212;-89
2022/04/12 09:02:59;;;;;;;9.80;4.00;;;;;;;15.67;49.62;99412.17;105219;1286;23942;-91
2022/04/12 09:05:32;;;;;;;11.00;4.40;;;;;;;15.67;49.68;99413.84;105625;1286;23989;-89
2022/04/12 09:08:27;;;;;;;9.70;3.60;;;;;;;15.60;49.22;99416.53;105701;1286;22701;-89
2022/04/12 09:11:35;;;;;;;;;;;;;;;;;;;;;
2022/04/12 09:14:02;;;;;;;9.70;3.90;;;;;;;15.76;49.51;99411.04;106763;1286;22561;-89
2022/04/12 09:16:31;;;;;;;8.00;3.50;;;;;;;15.96;49.37;99409.31;107297;1277;24422;-90
2022/04/12 09:19:20;;;;;;;;;;;;;;;;;;;;;
2022/04/12 09:22:45;;;;;;;11.80;4.30;;;;;;;16.16;47.97;99398.88;105137;1287;25421;-88
2022/04/12 09:25:24;;;;;;;10.50;4.30;;;;;;;15.90;48.33;99401.72;106551;1287;22613;-87
2022/04/12 09:28:04;;;;;;;9.90;4.00;;;;;;;15.97;48.84;99402.38;105482;1289;24220;-90
2022/04/12 09:30:32;;;;;;;10.90;4.40;;;;;;;16.13;48.73;99397.02;105741;1287;24261;-88
2022/04/12 09:33:15;;;;;;;12.90;4.40;;;;;;;16.20;47.78;99391.16;105274;1287;24205;-90
2022/04/12 09:35:58;;;;;;;9.60;3.90;;;;;;;16.05;47.88;99395.91;105602;1287;23141;-90
2022/04/12 09:39:10;;;;;;;;;;;;;;;;;;;;;
2022/04/12 09:42:08;;;;;;;12.20;5.00;;;;;;;16.36;48.14;99392.92;105472;1287;22540;-88
2022/04/12 09:44:41;;;;;;;14.40;6.00;;;;;;;16.39;47.81;99392.70;104934;1289;22810;-88
2022/04/12 09:47:14;;;;;;;11.20;5.20;;;;;;;16.45;48.34;99389.95;104914;1289;22563;-88
2022/04/12 09:49:46;;;;;;;11.10;4.80;;;;;;;16.62;48.27;99391.45;106284;1287;22744;-88
2022/04/12 09:52:17;;;;;;;10.90;5.20;;;;;;;16.79;48.08;99386.83;104823;1289;22587;-86
2022/04/12 09:55:07;;;;;;;;;;;;;;;;;;;;;
2022/04/12 09:57:41;;;;;;;11.60;5.30;;;;;;;16.73;47.42;99380.39;105099;1287;22689;-83
2022/04/12 10:00:35;;;;;;;15.30;5.90;;;;;;;16.70;47.47;99378.31;105287;1280;22771;-87
2022/04/12 10:03:18;;;;;;;12.40;4.90;;;;;;;16.82;47.74;99379.25;105546;1280;22557;-88
2022/04/12 10:06:54;;;;;;;35.20;16.90;;;;;;;16.79;47.04;99382.38;105480;1280;22560;-89
2022/04/12 10:09:42;;;;;;;13.70;5.70;;;;;;;16.74;47.22;99380.88;105329;1287;22573;-88
2022/04/12 10:12:10;;;;;;;16.20;6.50;;;;;;;16.89;47.32;99377.12;105046;1287;22553;-89
2022/04/12 10:14:45;;;;;;;31.50;13.80;;;;;;;17.04;47.40;99372.61;105268;1287;24191;-88
2022/04/12 10:17:38;;;;;;;30.90;10.30;;;;;;;17.27;46.96;99370.34;104969;1289;23778;-91
2022/04/12 10:20:14;;;;;;;15.40;5.30;;;;;;;17.39;47.06;99370.73;106409;1289;22569;-88
2022/04/12 10:22:57;;;;;;;12.90;5.80;;;;;;;17.49;46.98;99364.96;105256;1289;22663;-90
2022/04/12 10:25:38;;;;;;;9.70;4.40;;;;;;;17.69;47.00;99365.39;105890;1289;24261;-90
2022/04/12 10:28:14;;;;;;;10.10;4.40;;;;;;;17.80;46.66;99361.13;105157;1289;25356;-88
2022/04/12 10:31:31;;;;;;;12.20;5.10;;;;;;;17.71;46.37;99360.73;105097;1289;23970;-88
2022/04/12 10:34:21;;;;;;;;;;;;;;;;;;;;;
2022/04/12 10:37:20;;;;;;;10.40;4.60;;;;;;;17.46;46.11;99349.75;106089;1288;22569;-91
2022/04/12 10:39:58;;;;;;;11.10;4.50;;;;;;;17.60;46.46;99345.85;105835;1288;22546;-90
2022/04/12 10:42:32;;;;;;;11.10;5.20;;;;;;;17.81;46.25;99340.67;105047;1289;23145;-89
2022/04/12 10:45:04;;;;;;;11.60;4.70;;;;;;;17.80;45.92;99336.23;105150;1289;24211;-92
2022/04/12 10:47:45;;;;;;;18.40;7.80;;;;;;;17.79;45.86;99336.33;105369;1283;24787;-91
2022/04/12 10:50:17;;;;;;;11.90;5.20;;;;;;;17.75;45.43;99335.25;105305;1281;22568;-88
2022/04/12 10:53:03;;;;;;;16.00;6.10;;;;;;;17.70;45.58;99333.05;105778;1281;22560;-91
2022/04/12 10:56:49;;;;;;;10.50;5.00;;;;;;;17.89;45.94;99332.08;106144;1281;23954;-92
2022/04/12 10:58:54;;;;;;;11.10;4.40;;;;;;;18.17;45.75;99330.23;106750;1281;24350;-88
2022/04/12 11:01:55;;;;;;;;;;;;;;;;;;;;;
2022/04/12 11:04:29;;;;;;;9.90;4.60;;;;;;;18.50;44.76;99324.19;105496;1281;22531;-89
2022/04/12 11:08:08;;;;;;;11.00;4.60;;;;;;;18.24;44.84;99319.42;105511;1281;22573;-88
2022/04/12 11:10:59;;;;;;;22.40;12.50;;;;;;;18.48;45.12;99311.98;105650;1281;24215;-89
2022/04/12 11:13:36;;;;;;;11.40;5.10;;;;;;;18.52;44.86;99313.15;106459;1281;22570;-89
2022/04/12 11:16:09;;;;;;;11.10;4.90;;;;;;;18.57;45.03;99312.45;106310;1281;22547;-91
2022/04/12 11:19:03;;;;;;;10.20;4.40;;;;;;;18.65;44.92;99309.35;106001;1281;23226;-88
2022/04/12 11:22:16;;;;;;;10.50;5.20;;;;;;;18.72;44.75;99306.89;105798;1283;23565;-93
2022/04/12 11:25:16;;;;;;;13.30;6.20;;;;;;;18.74;44.63;99306.85;105644;1281;22575;-87
2022/04/12 11:28:14;;;;;;;19.30;10.40;;;;;;;18.75;44.30;99307.69;105719;1277;26488;-83
2022/04/12 11:31:23;;;;;;;10.90;5.50;;;;;;;18.75;44.22;99311.59;106319;1277;23941;-88
2022/04/12 11:34:01;;;;;;;13.30;6.40;;;;;;;18.80;44.21;99308.25;106333;1277;25605;-87
2022/04/12 11:36:36;;;;;;;14.60;6.70;;;;;;;18.93;44.23;99308.01;105845;1277;22586;-90
2022/04/12 11:39:07;;;;;;;10.20;5.10;;;;;;;19.09;44.28;99308.27;107104;1277;22737;-88
2022/04/12 11:41:50;;;;;;;16.00;5.10;;;;;;;19.31;44.23;99308.72;105869;1277;22781;-85
2022/04/12 11:44:52;;;;;;;14.20;6.30;;;;;;;19.36;43.65;99305.69;106122;1277;22664;-89
2022/04/12 11:47:48;;;;;;;;;;;;;;;;;;;;;
2022/04/12 11:50:51;;;;;;;11.50;5.60;;;;;;;19.03;43.43;99309.64;105783;1277;22559;-88
2022/04/12 11:53:46;;;;;;;18.40;7.80;;;;;;;19.02;42.98;99305.17;105933;1277;22538;-91
2022/04/12 11:56:49;;;;;;;;;;;;;;;;;;;;;
2022/04/12 11:59:56;;;;;;;15.20;7.20;;;;;;;19.27;43.37;99298.36;105782;1277;25593;-87
2022/04/12 12:02:30;;;;;;;13.00;6.00;;;;;;;19.43;43.21;99291.88;106103;1279;24323;-89
2022/04/12 12:05:33;;;;;;;12.40;6.00;;;;;;;19.52;43.20;99287.39;106113;1278;23940;-88
2022/04/12 12:09:09;;;;;;;;;;;;;;;;;;;;;
2022/04/12 12:16:35;;;;;;;;;;;;;;;;;;;;;
2022/04/12 12:19:33;;;;;;;10.90;5.80;;;;;;;19.18;42.45;99295.63;106099;1284;25557;-88
2022/04/12 12:22:36;;;;;;;11.50;5.80;;;;;;;19.42;42.72;99300.11;105160;1284;23926;-89
2022/04/12 12:26:27;;;;;;;;;;;;;;;;;;;;;
2022/04/12 12:29:39;;;;;;;12.30;5.40;;;;;;;19.34;42.20;99287.04;105595;1284;22569;-89
2022/04/12 12:32:57;;;;;;;11.10;5.70;;;;;;;19.33;42.14;99291.87;105186;1284;22633;-89
2022/04/12 12:36:50;;;;;;;14.20;6.90;;;;;;;19.14;41.99;99294.60;105279;1284;25343;-85
2022/04/12 12:39:28;;;;;;;13.40;6.30;;;;;;;18.77;41.98;99296.27;105158;1285;25366;-87
2022/04/12 12:42:38;;;;;;;11.00;5.50;;;;;;;18.91;42.20;99291.09;105123;1284;23024;-90
2022/04/12 12:45:25;;;;;;;15.20;6.30;;;;;;;18.79;41.31;99292.42;105533;1284;22630;-88
2022/04/12 12:48:13;;;;;;;13.30;6.40;;;;;;;18.61;41.45;99288.18;105274;1284;24701;-86
2022/04/12 12:51:50;;;;;;;14.90;6.50;;;;;;;18.60;41.45;99287.09;105543;1285;25539;-91
2022/04/12 12:54:12;;;;;;;14.00;6.50;;;;;;;18.52;41.84;99282.70;105036;1284;25365;-84
2022/04/12 12:56:52;;;;;;;11.40;6.30;;;;;;;18.49;41.59;99274.73;105960;1277;22527;-88
2022/04/12 12:59:39;;;;;;;13.20;6.60;;;;;;;18.53;41.38;99274.16;105841;1277;22583;-85
2022/04/12 13:02:09;;;;;;;13.40;6.70;;;;;;;18.44;41.15;99280.83;105941;1277;22739;-89
2022/04/12 13:04:53;;;;;;;11.50;6.10;;;;;;;18.37;41.09;99284.06;105751;1277;24259;-88
2022/04/12 13:07:38;;;;;;;12.00;6.60;;;;;;;18.40;41.36;99287.04;105780;1279;25314;-84
2022/04/12 13:10:37;;;;;;;13.30;6.40;;;;;;;18.40;41.29;99287.91;105829;1279;22835;-82
2022/04/12 13:13:13;;;;;;;13.00;6.20;;;;;;;18.36;40.91;99283.59;105698;1279;25372;-88
2022/04/12 13:15:50;;;;;;;13.70;6.60;;;;;;;18.29;40.75;99278.21;105994;1277;22560;-85
2022/04/12 13:18:20;;;;;;;18.90;9.40;;;;;;;18.23;40.20;99278.43;105652;1277;22789;-84
2022/04/12 13:20:47;;;;;;;12.20;6.30;;;;;;;18.05;40.59;99276.09;105905;1277;22564;-85
2022/04/12 13:23:20;;;;;;;17.20;6.80;;;;;;;18.00;40.62;99271.51;106479;1277;24365;-86
2022/04/12 13:26:10;;;;;;;11.40;5.70;;;;;;;18.07;40.93;99265.09;106212;1277;22575;-85
2022/04/12 13:28:40;;;;;;;11.90;6.40;;;;;;;18.17;40.41;99261.37;105755;1277;22567;-86
2022/04/12 13:31:18;;;;;;;;;;;;;;;;;;;;;
2022/04/12 13:34:01;;;;;;;10.50;5.60;;;;;;;18.13;40.28;99256.58;106004;1277;22542;-91
2022/04/12 13:36:30;;;;;;;14.60;6.60;;;;;;;18.00;40.25;99254.98;106226;1277;25475;-89
2022/04/12 13:39:08;;;;;;;12.70;6.30;;;;;;;17.99;40.52;99257.23;105994;1277;22869;-86
2022/04/12 13:41:47;;;;;;;11.30;6.20;;;;;;;17.95;40.39;99254.93;105794;1277;22564;-88
2022/04/12 13:44:36;;;;;;;14.60;6.60;;;;;;;17.85;40.25;99254.12;106367;1277;22640;-88
2022/04/12 13:47:12;;;;;;;13.50;6.20;;;;;;;17.71;40.14;99250.52;106471;1276;22552;-87
2022/04/12 13:49:45;;;;;;;12.80;6.40;;;;;;;17.43;40.01;99253.05;106082;1276;25349;-84
2022/04/12 13:52:51;;;;;;;;;;;;;;;;;;;;;
2022/04/12 13:55:42;;;;;;;15.00;6.80;;;;;;;17.08;40.00;99255.73;105996;1277;23571;-88
2022/04/12 13:58:26;;;;;;;15.60;7.00;;;;;;;17.24;39.99;99253.42;106290;1277;22554;-85
2022/04/12 14:00:54;;;;;;;13.60;6.60;;;;;;;17.37;39.76;99251.08;106520;1277;22540;-88
2022/04/12 14:03:55;;;;;;;14.70;6.90;;;;;;;17.56;40.03;99247.27;106058;1277;22549;-86
2022/04/12 14:07:11;;;;;;;15.10;6.90;;;;;;;17.69;39.56;99238.75;106053;1277;22552;-84
2022/04/12 14:09:46;;;;;;;17.20;6.90;;;;;;;17.59;39.25;99235.23;106191;1277;22550;-84
2022/04/12 14:13:21;;;;;;;;;;;;;;;;;;;;;
2022/04/12 14:16:21;;;;;;;11.90;5.60;;;;;;;17.52;39.37;99230.72;105958;1279;23904;-86
2022/04/12 14:19:26;;;;;;;12.60;5.90;;;;;;;17.54;39.21;99230.86;106806;1277;24330;-83
2022/04/12 14:22:12;;;;;;;13.20;5.80;;;;;;;17.51;39.12;99232.42;105978;1284;22750;-87
2022/04/12 14:24:55;;;;;;;74.50;27.50;;;;;;;17.59;39.18;99232.21;105431;1283;22896;-88
2022/04/12 14:28:00;;;;;;;;;;;;;;;;;;;;;
2022/04/12 14:30:32;;;;;;;12.20;5.40;;;;;;;17.83;39.01;99223.70;105716;1284;22683;-89
2022/04/12 14:33:06;;;;;;;12.60;5.60;;;;;;;17.88;38.96;99227.77;105211;1284;23025;-84
2022/04/12 14:36:16;;;;;;;11.60;5.90;;;;;;;18.00;39.21;99231.04;105124;1285;22563;-89
2022/04/12 14:38:55;;;;;;;13.50;5.90;;;;;;;18.00;38.72;99234.79;104605;1290;22643;-90
2022/04/12 14:41:30;;;;;;;13.50;5.40;;;;;;;17.94;38.47;99236.14;104708;1290;22900;-88
2022/04/12 14:44:16;;;;;;;;;;;;;;;;;;;;;
2022/04/12 14:46:59;;;;;;;;;;;;;;;;;;;;;
2022/04/12 14:49:54;;;;;;;12.30;5.80;;;;;;;17.97;38.12;99230.08;104753;1290;22562;-84
2022/04/12 14:52:47;;;;;;;;;;;;;;;;;;;;;
2022/04/12 14:55:29;;;;;;;;;;;;;;;;;;;;;
2022/04/12 14:58:04;;;;;;;12.90;5.70;;;;;;;17.36;38.30;99221.70;104491;1290;25318;-85
2022/04/12 15:01:00;;;;;;;13.50;6.20;;;;;;;17.23;38.37;99225.42;105251;1283;22560;-87
2022/04/12 15:03:44;;;;;;;13.10;6.10;;;;;;;17.26;38.12;99229.64;105102;1283;24229;-88
2022/04/12 15:06:19;;;;;;;11.20;5.30;;;;;;;17.15;38.25;99225.58;105470;1285;25883;-89
2022/04/12 15:08:46;;;;;;;13.40;4.90;;;;;;;17.22;38.18;99223.73;105285;1283;22696;-88
2022/04/12 15:11:38;;;;;;;11.70;5.50;;;;;;;17.28;38.11;99218.17;105060;1285;25603;-89
2022/04/12 15:15:05;;;;;;;;;;;;;;;;;;;;;
2022/04/12 15:18:29;;;;;;;12.70;5.40;;;;;;;18.01;37.91;99226.77;106260;1279;22565;-89
2022/04/12 15:21:19;;;;;;;;;;;;;;;;;;;;;
2022/04/12 15:24:49;;;;;;;11.30;5.80;;;;;;;17.95;37.43;99223.80;105821;1279;25249;-84
2022/04/12 15:27:20;;;;;;;11.80;5.20;;;;;;;17.93;37.66;99228.36;105859;1279;22558;-86
2022/04/12 15:30:10;;;;;;;11.30;5.50;;;;;;;17.94;37.73;99228.98;105993;1279;25808;-84
2022/04/12 15:32:56;;;;;;;12.00;5.80;;;;;;;17.90;37.37;99228.61;105618;1280;22541;-84
2022/04/12 15:35:29;;;;;;;10.70;5.20;;;;;;;17.77;37.50;99230.11;106122;1279;22569;-88
2022/04/12 15:38:26;;;;;;;11.40;5.80;;;;;;;17.70;37.53;99223.88;105866;1279;22696;-88
2022/04/12 15:41:01;;;;;;;13.50;5.70;;;;;;;17.42;37.15;99221.98;105904;1279;22537;-87
2022/04/12 15:43:46;;;;;;;23.00;7.80;;;;;;;17.06;37.12;99228.70;105922;1279;25102;-92
2022/04/12 15:47:24;;;;;;;18.20;6.00;;;;;;;16.76;37.52;99232.28;105546;1279;22580;-91
2022/04/12 15:50:21;;;;;;;15.40;6.10;;;;;;;16.62;37.38;99236.92;105676;1279;25289;-81
2022/04/12 15:53:51;;;;;;;;;;;;;;;;;;;;;
2022/04/12 15:57:05;;;;;;;11.00;6.10;;;;;;;16.95;36.96;99243.31;105778;1279;22537;-88
2022/04/12 16:00:06;;;;;;;11.60;6.20;;;;;;;17.15;36.71;99235.30;105713;1279;25282;-81
2022/04/12 16:03:10;;;;;;;13.40;6.20;;;;;;;17.22;36.69;99234.05;105954;1280;25363;-86
2022/04/12 16:06:08;;;;;;;;;;;;;;;;;;;;;
2022/04/12 16:09:42;;;;;;;;;;;;;;;;;;;;;
2022/04/12 16:13:46;;;;;;;13.10;5.70;;;;;;;16.75;36.78;99233.68;103947;1294;22572;-86
2022/04/12 16:16:55;;;;;;;;;;;;;;;;;;;;;
2022/04/12 16:19:43;;;;;;;12.20;5.90;;;;;;;15.13;37.42;99246.34;103724;1300;22611;-88
2022/04/12 16:23:21;;;;;;;11.80;5.30;;;;;;;14.70;37.51;99248.05;103986;1297;22557;-88
2022/04/12 16:26:21;;;;;;;;;;;;;;;;;;;;;
2022/04/12 16:29:29;;;;;;;;;;;;;;;;;;;;;
2022/04/12 16:32:05;;;;;;;12.90;5.60;;;;;;;13.55;37.83;99258.23;103495;1302;25479;-87
2022/04/12 16:34:37;;;;;;;15.10;6.30;;;;;;;13.34;37.82;99254.08;103295;1302;22560;-87
2022/04/12 16:37:20;;;;;;;11.70;5.90;;;;;;;13.18;37.94;99260.13;103465;1303;23430;-86
2022/04/12 16:40:11;;;;;;;12.00;5.80;;;;;;;13.01;38.17;99266.48;103406;1303;22777;-86
2022/04/12 16:43:33;;;;;;;13.30;5.60;;;;;;;12.81;37.96;99271.27;103515;1306;23274;-87
2022/04/12 16:49:36;;;;;;;13.20;5.50;;;;;;;12.40;38.01;99268.73;103734;1297;24755;-88
2022/04/12 16:52:54;;;;;;;12.40;5.60;;;;;;;12.25;38.04;99270.01;104424;1291;22962;-88
2022/04/12 16:55:29;;;;;;;12.40;5.70;;;;;;;12.10;38.22;99274.73;104574;1290;22584;-82
2022/04/12 16:58:36;;;;;;;;;;;;;;;;;;;;;
2022/04/12 17:01:42;;;;;;;12.50;5.20;;;;;;;11.84;38.32;99288.40;104994;1284;25612;-89
2022/04/12 17:04:58;;;;;;;;;;;;;;;;;;;;;
2022/04/12 17:08:22;;;;;;;12.20;5.50;;;;;;;11.58;38.61;99288.88;105268;1285;22550;-89
2022/04/12 17:11:21;;;;;;;;;;;;;;;;;;;;;
2022/04/12 17:14:55;;;;;;;13.80;5.90;;;;;;;11.29;38.80;99290.29;105818;1279;25338;-90
2022/04/12 17:22:20;;;;;;;13.40;6.40;;;;;;;10.91;38.76;99288.30;105090;1285;22572;-90
2022/04/12 17:25:00;;;;;;;16.70;7.30;;;;;;;10.73;38.88;99295.27;104644;1291;22680;-89
2022/04/12 17:28:36;;;;;;;13.60;5.80;;;;;;;10.61;38.95;99299.29;104401;1291;22557;-88
2022/04/12 17:32:11;;;;;;;;;;;;;;;;;;;;;
2022/04/12 17:35:57;;;;;;;17.20;5.80;;;;;;;10.27;39.29;99301.61;103500;1306;25330;-90
2022/04/12 17:38:54;;;;;;;;;;;;;;;;;;;;;